Time,TemperatureF,DewpointF,PressureIn,WindDirection,WindDirectionDegrees,WindSpeedMPH,WindSpeedGustMPH,Humidity,HourlyPrecipIn,Conditions,Clouds,dailyrainin,SoftwareType,DateUTC
2013-02-08 00:02:00,32.0,-99.9,-100.00,NNW,335,11.0,15.0,-999,0.00,,,0.77,,2013-02-08 06:02:00,
2013-02-08 00:11:00,32.0,-99.9,-100.00,NNW,335,11.0,15.0,-999,0.00,,,0.77,,2013-02-08 06:11:00,
2013-02-08 00:22:00,32.0,-99.9,-100.00,NNW,335,11.0,15.0,-999,0.00,,,0.77,,2013-02-08 06:22:00,
2013-02-08 01:02:00,31.0,-99.9,-100.00,NNW,333,12.0,19.0,-999,0.00,,,0.74,,2013-02-08 07:02:00,
2013-02-08 01:12:00,31.0,-99.9,-100.00,NNW,333,12.0,19.0,-999,0.00,,,0.74,,2013-02-08 07:12:00,
2013-02-08 01:22:00,31.0,-99.9,-100.00,NNW,333,12.0,19.0,-999,0.00,,,0.74,,2013-02-08 07:22:00,
2013-02-08 01:32:00,31.0,-99.9,-100.00,NW,322,12.0,16.0,-999,0.00,,,0.74,,2013-02-08 07:32:00,
2013-02-08 01:42:00,31.0,-99.9,-100.00,NW,322,12.0,16.0,-999,0.00,,,0.74,,2013-02-08 07:42:00,
2013-02-08 01:52:00,31.0,-99.9,-100.00,NW,322,12.0,16.0,-999,0.00,,,0.74,,2013-02-08 07:52:00,
2013-02-08 02:02:00,31.0,-99.9,-100.00,NNW,337,8.0,12.0,-999,0.00,,,0.74,,2013-02-08 08:02:00,
2013-02-08 02:12:00,31.0,-99.9,-100.00,NNW,337,8.0,12.0,-999,0.00,,,0.74,,2013-02-08 08:12:00,
2013-02-08 02:22:00,31.0,-99.9,-100.00,NNW,337,8.0,12.0,-999,0.00,,,0.74,,2013-02-08 08:22:00,
2013-02-08 02:32:00,31.0,-99.9,-100.00,NNW,328,11.0,19.0,-999,0.00,,,0.74,,2013-02-08 08:32:00,
2013-02-08 02:42:00,31.0,-99.9,-100.00,NNW,328,11.0,19.0,-999,0.00,,,0.74,,2013-02-08 08:42:00,
2013-02-08 02:52:00,31.0,-99.9,-100.00,NNW,328,11.0,19.0,-999,0.00,,,0.74,,2013-02-08 08:52:00,
2013-02-08 03:03:00,31.0,-99.9,-100.00,NNW,343,8.0,13.0,-999,0.00,,,0.72,,2013-02-08 09:03:00,
2013-02-08 03:11:00,31.0,-99.9,-100.00,NNW,343,8.0,13.0,-999,0.00,,,0.72,,2013-02-08 09:11:00,
2013-02-08 03:22:00,31.0,-99.9,-100.00,NNW,343,8.0,13.0,-999,0.00,,,0.72,,2013-02-08 09:22:00,
2013-02-08 03:32:00,30.0,-99.9,-100.00,NNW,342,11.0,15.0,-999,0.00,,,0.71,,2013-02-08 09:32:00,
2013-02-08 03:42:00,30.0,-99.9,-100.00,NNW,342,11.0,15.0,-999,0.00,,,0.71,,2013-02-08 09:42:00,
2013-02-08 03:52:00,30.0,-99.9,-100.00,NNW,342,11.0,15.0,-999,0.00,,,0.71,,2013-02-08 09:52:00,
2013-02-08 04:02:00,30.0,-99.9,-100.00,NNW,344,7.0,12.0,-999,0.00,,,0.71,,2013-02-08 10:02:00,
2013-02-08 04:12:00,30.0,-99.9,-100.00,NNW,344,7.0,12.0,-999,0.00,,,0.71,,2013-02-08 10:12:00,
2013-02-08 04:22:00,30.0,-99.9,-100.00,NNW,344,7.0,12.0,-999,0.00,,,0.71,,2013-02-08 10:22:00,
2013-02-08 04:32:00,29.0,-99.9,-100.00,North,351,11.0,16.0,-999,0.00,,,0.69,,2013-02-08 10:32:00,
2013-02-08 04:42:00,29.0,-99.9,-100.00,North,351,11.0,16.0,-999,0.00,,,0.69,,2013-02-08 10:42:00,
2013-02-08 04:52:00,29.0,-99.9,-100.00,North,351,11.0,16.0,-999,0.00,,,0.69,,2013-02-08 10:52:00,
2013-02-08 05:02:00,28.0,-99.9,-100.00,NNW,342,10.0,17.0,-999,0.00,,,0.64,,2013-02-08 11:02:00,
2013-02-08 05:11:00,28.0,-99.9,-100.00,NNW,342,10.0,17.0,-999,0.00,,,0.64,,2013-02-08 11:11:00,
2013-02-08 05:22:00,28.0,-99.9,-100.00,NNW,342,10.0,17.0,-999,0.00,,,0.64,,2013-02-08 11:22:00,
2013-02-08 05:32:00,28.0,-99.9,-100.00,North,349,8.0,15.0,-999,0.00,,,0.60,,2013-02-08 11:32:00,
2013-02-08 05:42:00,28.0,-99.9,-100.00,North,349,8.0,15.0,-999,0.00,,,0.60,,2013-02-08 11:42:00,
2013-02-08 05:53:00,28.0,-99.9,-100.00,North,349,8.0,15.0,-999,0.00,,,0.60,,2013-02-08 11:53:00,
2013-02-08 06:02:00,29.0,-99.9,-100.00,NNW,336,5.0,9.0,-999,0.00,,,0.58,,2013-02-08 12:02:00,
2013-02-08 06:11:00,29.0,-99.9,-100.00,NNW,336,5.0,9.0,-999,0.00,,,0.58,,2013-02-08 12:11:00,
2013-02-08 06:22:00,29.0,-99.9,-100.00,NNW,336,5.0,9.0,-999,0.00,,,0.58,,2013-02-08 12:22:00,
2013-02-08 06:33:00,28.0,-99.9,-100.00,NNW,343,11.0,13.0,-999,0.00,,,0.58,,2013-02-08 12:33:00,
2013-02-08 06:42:00,28.0,-99.9,-100.00,NNW,343,11.0,13.0,-999,0.00,,,0.58,,2013-02-08 12:42:00,
2013-02-08 06:53:00,28.0,-99.9,-100.00,NNW,343,11.0,13.0,-999,0.00,,,0.58,,2013-02-08 12:53:00,
2013-02-08 07:02:00,27.0,-99.9,-100.00,NNW,347,10.0,16.0,-999,0.00,,,0.58,,2013-02-08 13:02:00,
2013-02-08 07:12:00,27.0,-99.9,-100.00,NNW,347,10.0,16.0,-999,0.00,,,0.58,,2013-02-08 13:12:00,
2013-02-08 07:22:00,27.0,-99.9,-100.00,NNW,347,10.0,16.0,-999,0.00,,,0.58,,2013-02-08 13:22:00,
2013-02-08 07:33:00,27.0,-99.9,-100.00,NNE,17,9.0,13.0,-999,0.00,,,0.57,,2013-02-08 13:33:00,
2013-02-08 07:43:00,27.0,-99.9,-100.00,NNE,17,9.0,13.0,-999,0.00,,,0.57,,2013-02-08 13:43:00,
2013-02-08 07:52:00,27.0,-99.9,-100.00,NNE,17,9.0,13.0,-999,0.00,,,0.57,,2013-02-08 13:52:00,
2013-02-08 08:02:00,27.0,-99.9,-100.00,NNE,17,8.0,14.0,-999,0.00,,,0.55,,2013-02-08 14:02:00,
2013-02-08 08:12:00,27.0,-99.9,-100.00,NNE,17,8.0,14.0,-999,0.00,,,0.55,,2013-02-08 14:12:00,
2013-02-08 08:22:00,27.0,-99.9,-100.00,NNE,17,8.0,14.0,-999,0.00,,,0.55,,2013-02-08 14:22:00,
2013-02-08 08:33:00,27.0,-99.9,-100.00,NNW,342,9.0,14.0,-999,0.00,,,0.53,,2013-02-08 14:33:00,
2013-02-08 08:42:00,27.0,-99.9,-100.00,NNW,342,9.0,14.0,-999,0.00,,,0.53,,2013-02-08 14:42:00,
2013-02-08 08:53:00,27.0,-99.9,-100.00,NNW,342,9.0,14.0,-999,0.00,,,0.53,,2013-02-08 14:53:00,
2013-02-08 09:02:00,28.0,-99.9,-100.00,North,9,8.0,12.0,-999,0.00,,,-99.99,,2013-02-08 15:02:00,
2013-02-08 09:12:00,28.0,-99.9,-100.00,North,9,8.0,12.0,-999,0.00,,,-99.99,,2013-02-08 15:12:00,
2013-02-08 09:22:00,28.0,-99.9,-100.00,North,9,8.0,12.0,-999,0.00,,,-99.99,,2013-02-08 15:22:00,
2013-02-08 09:32:00,27.0,-99.9,-100.00,NNE,12,9.0,14.0,-999,0.00,,,0.42,,2013-02-08 15:32:00,
2013-02-08 09:42:00,27.0,-99.9,-100.00,NNE,12,9.0,14.0,-999,0.00,,,0.42,,2013-02-08 15:42:00,
2013-02-08 09:52:00,27.0,-99.9,-100.00,NNE,12,9.0,14.0,-999,0.00,,,0.42,,2013-02-08 15:52:00,
2013-02-08 10:02:00,27.0,-99.9,-100.00,North,360,10.0,13.0,-999,0.00,,,0.38,,2013-02-08 16:02:00,
2013-02-08 10:12:00,27.0,-99.9,-100.00,North,360,10.0,13.0,-999,0.00,,,0.38,,2013-02-08 16:12:00,
2013-02-08 10:22:00,27.0,-99.9,-100.00,North,360,10.0,13.0,-999,0.00,,,0.38,,2013-02-08 16:22:00,
2013-02-08 10:33:00,27.0,-99.9,-100.00,NNE,29,10.0,14.0,-999,0.00,,,0.34,,2013-02-08 16:33:00,
2013-02-08 10:42:00,27.0,-99.9,-100.00,NNE,29,10.0,14.0,-999,0.00,,,0.34,,2013-02-08 16:42:00,
2013-02-08 10:52:00,27.0,-99.9,-100.00,NNE,29,10.0,14.0,-999,0.00,,,0.34,,2013-02-08 16:52:00,
2013-02-08 11:04:00,28.0,-99.9,-100.00,NNE,17,7.0,11.0,-999,0.00,,,0.32,,2013-02-08 17:04:00,
2013-02-08 11:13:00,28.0,-99.9,-100.00,NNE,17,7.0,11.0,-999,0.00,,,0.32,,2013-02-08 17:13:00,
2013-02-08 11:23:00,28.0,-99.9,-100.00,NNE,17,7.0,11.0,-999,0.00,,,0.32,,2013-02-08 17:23:00,
2013-02-08 11:33:00,27.0,-99.9,-100.00,NNW,341,5.0,9.0,-999,0.00,,,0.29,,2013-02-08 17:33:00,
2013-02-08 11:42:00,27.0,-99.9,-100.00,NNW,341,5.0,9.0,-999,0.00,,,0.29,,2013-02-08 17:42:00,
2013-02-08 11:53:00,27.0,-99.9,-100.00,NNW,341,5.0,9.0,-999,0.00,,,0.29,,2013-02-08 17:53:00,
2013-02-08 12:03:00,28.0,-99.9,-100.00,NNE,32,6.0,8.0,-999,0.00,,,0.25,,2013-02-08 18:03:00,
2013-02-08 12:12:00,28.0,-99.9,-100.00,NNE,32,6.0,8.0,-999,0.00,,,0.25,,2013-02-08 18:12:00,
2013-02-08 12:25:00,28.0,-99.9,-100.00,NNE,32,6.0,8.0,-999,0.00,,,0.25,,2013-02-08 18:25:00,
2013-02-08 12:36:00,28.0,-99.9,-100.00,North,351,7.0,10.0,-999,0.00,,,0.23,,2013-02-08 18:36:00,
2013-02-08 12:44:00,28.0,-99.9,-100.00,North,351,7.0,10.0,-999,0.00,,,0.23,,2013-02-08 18:44:00,
2013-02-08 12:53:00,28.0,-99.9,-100.00,North,351,7.0,10.0,-999,0.00,,,0.23,,2013-02-08 18:53:00,
2013-02-08 13:02:00,28.0,-99.9,-100.00,North,359,6.0,10.0,-999,0.00,,,0.21,,2013-02-08 19:02:00,
2013-02-08 13:12:00,28.0,-99.9,-100.00,North,359,6.0,10.0,-999,0.00,,,0.21,,2013-02-08 19:12:00,
2013-02-08 13:22:00,28.0,-99.9,-100.00,North,359,6.0,10.0,-999,0.00,,,0.21,,2013-02-08 19:22:00,
2013-02-08 13:33:00,29.0,-99.9,-100.00,NNE,32,7.0,9.0,-999,0.00,,,0.18,,2013-02-08 19:33:00,
2013-02-08 13:42:00,29.0,-99.9,-100.00,NNE,32,7.0,9.0,-999,0.00,,,0.18,,2013-02-08 19:42:00,
2013-02-08 13:53:00,29.0,-99.9,-100.00,NNE,32,7.0,9.0,-999,0.00,,,0.18,,2013-02-08 19:53:00,
2013-02-08 14:02:00,29.0,-99.9,-100.00,North,4,5.0,11.0,-999,0.00,,,0.16,,2013-02-08 20:02:00,
2013-02-08 14:12:00,29.0,-99.9,-100.00,North,4,5.0,11.0,-999,0.00,,,0.16,,2013-02-08 20:12:00,
2013-02-08 14:22:00,29.0,-99.9,-100.00,North,4,5.0,11.0,-999,0.00,,,0.16,,2013-02-08 20:22:00,
2013-02-08 14:32:00,32.0,-99.9,-100.00,East,87,1.0,3.0,-999,0.00,,,0.13,,2013-02-08 20:32:00,
2013-02-08 14:42:00,32.0,-99.9,-100.00,East,87,1.0,3.0,-999,0.00,,,0.13,,2013-02-08 20:42:00,
2013-02-08 14:53:00,32.0,-99.9,-100.00,East,87,1.0,3.0,-999,0.00,,,0.13,,2013-02-08 20:53:00,
2013-02-08 15:02:00,30.0,-99.9,-100.00,NE,37,3.0,4.0,-999,0.00,,,0.09,,2013-02-08 21:02:00,
2013-02-08 15:12:00,30.0,-99.9,-100.00,NE,37,3.0,4.0,-999,0.00,,,0.09,,2013-02-08 21:12:00,
2013-02-08 15:22:00,30.0,-99.9,-100.00,NE,37,3.0,4.0,-999,0.00,,,0.09,,2013-02-08 21:22:00,
2013-02-08 15:30:00,30.0,-99.9,-100.00,North,5,1.0,3.0,-999,0.00,,,0.05,,2013-02-08 21:30:00,
2013-02-08 15:33:00,29.0,-99.9,-100.00,North,349,3.0,4.0,-999,0.00,,,0.06,,2013-02-08 21:33:00,
2013-02-08 15:42:00,29.0,-99.9,-100.00,North,349,3.0,4.0,-999,0.00,,,0.06,,2013-02-08 21:42:00,
2013-02-08 15:52:00,29.0,-99.9,-100.00,North,349,3.0,4.0,-999,0.00,,,0.06,,2013-02-08 21:52:00,
2013-02-08 16:02:00,30.0,-99.9,-100.00,North,5,1.0,3.0,-999,0.00,,,0.05,,2013-02-08 22:02:00,
2013-02-08 16:12:00,30.0,-99.9,-100.00,North,5,1.0,3.0,-999,0.00,,,0.05,,2013-02-08 22:12:00,
2013-02-08 16:22:00,30.0,-99.9,-100.00,North,5,1.0,3.0,-999,0.00,,,0.05,,2013-02-08 22:22:00,
2013-02-08 16:42:00,32.0,-99.9,-100.00,East,99,2.0,4.0,-999,0.00,,,0.04,,2013-02-08 22:42:00,
2013-02-08 16:52:00,32.0,-99.9,-100.00,East,99,2.0,4.0,-999,0.00,,,0.04,,2013-02-08 22:52:00,
2013-02-08 17:02:00,29.0,-99.9,-100.00,NE,43,3.0,4.0,-999,0.00,,,0.03,,2013-02-08 23:02:00,
2013-02-08 17:12:00,29.0,-99.9,-100.00,NE,43,3.0,4.0,-999,0.00,,,0.03,,2013-02-08 23:12:00,
2013-02-08 17:22:00,29.0,-99.9,-100.00,NE,43,3.0,4.0,-999,0.00,,,0.03,,2013-02-08 23:22:00,
2013-02-08 17:30:00,29.0,-99.9,-100.00,SE,146,2.0,3.0,-999,0.00,,,0.01,,2013-02-08 23:30:00,
2013-02-08 17:32:00,30.0,-99.9,-100.00,SW,229,1.0,4.0,-999,0.00,,,0.02,,2013-02-08 23:32:00,
2013-02-08 17:42:00,30.0,-99.9,-100.00,SW,229,1.0,4.0,-999,0.00,,,0.02,,2013-02-08 23:42:00,
2013-02-08 17:52:00,30.0,-99.9,-100.00,SW,229,1.0,4.0,-999,0.00,,,0.02,,2013-02-08 23:52:00,
2013-02-08 18:02:00,29.0,-99.9,-100.00,SE,146,2.0,3.0,-999,0.00,,,0.01,,2013-02-09 00:02:00,
2013-02-08 18:12:00,29.0,-99.9,-100.00,SE,146,2.0,3.0,-999,0.00,,,0.01,,2013-02-09 00:12:00,
2013-02-08 18:22:00,29.0,-99.9,-100.00,SE,146,2.0,3.0,-999,0.00,,,0.01,,2013-02-09 00:22:00,
2013-02-08 19:02:00,29.0,-99.9,-100.00,SE,126,2.0,5.0,-999,0.00,,,0.00,,2013-02-09 01:02:00,
2013-02-08 19:12:00,29.0,-99.9,-100.00,SE,126,2.0,5.0,-999,0.00,,,0.00,,2013-02-09 01:12:00,
2013-02-08 19:22:00,29.0,-99.9,-100.00,SE,126,2.0,5.0,-999,0.00,,,0.00,,2013-02-09 01:22:00,
2013-02-08 19:32:00,28.0,-99.9,-100.00,ESE,114,3.0,4.0,-999,0.00,,,0.00,,2013-02-09 01:32:00,
2013-02-08 19:42:00,28.0,-99.9,-100.00,ESE,114,3.0,4.0,-999,0.00,,,0.00,,2013-02-09 01:42:00,
2013-02-08 19:52:00,28.0,-99.9,-100.00,ESE,114,3.0,4.0,-999,0.00,,,0.00,,2013-02-09 01:52:00,
2013-02-08 20:02:00,28.0,-99.9,-100.00,South,174,3.0,6.0,-999,0.00,,,0.00,,2013-02-09 02:02:00,
2013-02-08 20:11:00,28.0,-99.9,-100.00,South,174,3.0,6.0,-999,0.00,,,0.00,,2013-02-09 02:11:00,
2013-02-08 20:22:00,28.0,-99.9,-100.00,South,174,3.0,6.0,-999,0.00,,,0.00,,2013-02-09 02:22:00,
2013-02-08 20:32:00,28.0,-99.9,-100.00,SE,136,3.0,6.0,-999,0.00,,,0.00,,2013-02-09 02:32:00,
2013-02-08 20:42:00,28.0,-99.9,-100.00,SE,136,3.0,6.0,-999,0.00,,,0.00,,2013-02-09 02:42:00,
2013-02-08 20:53:00,28.0,-99.9,-100.00,SE,136,3.0,6.0,-999,0.00,,,0.00,,2013-02-09 02:53:00,
2013-02-08 21:02:00,27.0,-99.9,-100.00,ESE,111,5.0,8.0,-999,0.00,,,0.00,,2013-02-09 03:02:00,
2013-02-08 21:11:00,27.0,-99.9,-100.00,ESE,111,5.0,8.0,-999,0.00,,,0.00,,2013-02-09 03:11:00,
2013-02-08 21:22:00,27.0,-99.9,-100.00,ESE,111,5.0,8.0,-999,0.00,,,0.00,,2013-02-09 03:22:00,
2013-02-08 21:32:00,27.0,-99.9,-100.00,ESE,122,4.0,7.0,-999,0.00,,,0.00,,2013-02-09 03:32:00,
2013-02-08 21:42:00,27.0,-99.9,-100.00,ESE,122,4.0,7.0,-999,0.00,,,0.00,,2013-02-09 03:42:00,
2013-02-08 21:53:00,27.0,-99.9,-100.00,ESE,122,4.0,7.0,-999,0.00,,,0.00,,2013-02-09 03:53:00,
2013-02-08 22:03:00,27.0,-99.9,-100.00,SE,134,4.0,7.0,-999,0.00,,,0.00,,2013-02-09 04:03:00,
2013-02-08 22:12:00,27.0,-99.9,-100.00,SE,134,4.0,7.0,-999,0.00,,,0.00,,2013-02-09 04:12:00,
2013-02-08 22:24:00,27.0,-99.9,-100.00,SE,134,4.0,7.0,-999,0.00,,,0.00,,2013-02-09 04:24:00,
2013-02-08 22:32:00,27.0,-99.9,-100.00,SE,144,2.0,4.0,-999,0.00,,,0.00,,2013-02-09 04:32:00,
2013-02-08 22:43:00,27.0,-99.9,-100.00,SE,144,2.0,4.0,-999,0.00,,,0.00,,2013-02-09 04:43:00,
2013-02-08 22:53:00,27.0,-99.9,-100.00,SE,144,2.0,4.0,-999,0.00,,,0.00,,2013-02-09 04:53:00,
2013-02-08 23:03:00,27.0,-99.9,-100.00,SE,136,3.0,5.0,-999,0.00,,,0.00,,2013-02-09 05:03:00,
2013-02-08 23:12:00,27.0,-99.9,-100.00,SE,136,3.0,5.0,-999,0.00,,,0.00,,2013-02-09 05:12:00,
2013-02-08 23:22:00,27.0,-99.9,-100.00,SE,136,3.0,5.0,-999,0.00,,,0.00,,2013-02-09 05:22:00,
2013-02-08 23:32:00,27.0,-99.9,-100.00,ESE,118,8.0,11.0,-999,0.00,,,0.00,,2013-02-09 05:32:00,
2013-02-08 23:42:00,27.0,-99.9,-100.00,ESE,118,8.0,11.0,-999,0.00,,,0.00,,2013-02-09 05:42:00,
2013-02-08 23:52:00,27.0,-99.9,-100.00,ESE,118,8.0,11.0,-999,0.00,,,0.00,,2013-02-09 05:52:00,